Time;durP1;ratioP1;P1;durP2;ratioP2;P2;SDS_P1;SDS_P2;PMS_P1;PMS_P2;Temp;Humidity;BMP_temperature;BMP_pressure;BME280_temperature;BME280_humidity;BME280_pressure;Samples;Min_cycle;Max_cycle;Signal;HPM_P1;HPM_P2
2021/03/10 00:01:48;;;;;;;86.43;32.47;;;;;;;-0.28;56.07;100711.59;1758639;79;21334;-66
2021/03/10 00:04:14;;;;;;;98.80;33.40;;;;;;;-0.30;55.74;100710.84;1757244;79;22275;-65
2021/03/10 00:06:40;;;;;;;96.33;33.57;;;;;;;-0.34;55.98;100713.19;1770124;79;20951;-66
2021/03/10 00:09:05;;;;;;;95.93;33.57;;;;;;;-0.35;55.93;100706.33;1761514;79;21045;-65
2021/03/10 00:11:31;;;;;;;100.30;33.27;;;;;;;-0.35;55.98;100710.22;1766933;79;20962;-66
2021/03/10 00:13:57;;;;;;;85.17;33.40;;;;;;;-0.37;56.00;100708.53;1788818;79;21055;-64
2021/03/10 00:16:23;;;;;;;92.10;32.93;;;;;;;-0.39;56.34;100709.07;1785792;79;21174;-65
2021/03/10 00:18:49;;;;;;;85.40;32.67;;;;;;;-0.40;56.04;100706.08;1789448;79;21590;-65
2021/03/10 00:21:14;;;;;;;84.50;31.43;;;;;;;-0.40;56.03;100712.57;1785640;79;20920;-66
2021/03/10 00:23:40;;;;;;;90.27;31.83;;;;;;;-0.42;56.22;100701.87;1792439;79;20895;-66
2021/03/10 00:26:06;;;;;;;93.17;31.40;;;;;;;-0.48;56.79;100710.80;1777497;79;20963;-65
2021/03/10 00:28:32;;;;;;;85.90;30.93;;;;;;;-0.49;56.50;100710.41;1781629;79;21584;-65
2021/03/10 00:30:57;;;;;;;91.47;32.77;;;;;;;-0.48;56.37;100714.69;1782437;79;20939;-67
2021/03/10 00:33:23;;;;;;;92.00;32.77;;;;;;;-0.48;56.43;100708.20;1782061;79;21562;-66
2021/03/10 00:35:49;;;;;;;86.87;30.07;;;;;;;-0.49;56.55;100710.41;1785465;79;22029;-66
2021/03/10 00:38:15;;;;;;;91.20;29.92;;;;;;;-0.61;57.35;100709.20;1788147;78;21912;-65
2021/03/10 00:40:41;;;;;;;92.80;34.10;;;;;;;-0.79;58.20;100710.91;1790339;79;22149;-66
2021/03/10 00:43:06;;;;;;;92.17;32.83;;;;;;;-0.93;58.67;100705.52;1789240;79;21006;-66
2021/03/10 00:45:32;;;;;;;90.83;32.27;;;;;;;-1.10;59.53;100708.38;1791643;79;21105;-65
2021/03/10 00:47:58;;;;;;;91.37;32.20;;;;;;;-1.13;59.51;100703.33;1786651;78;21029;-67
2021/03/10 00:50:24;;;;;;;96.30;35.40;;;;;;;-1.10;59.29;100699.31;1786312;79;21609;-66
2021/03/10 00:52:49;;;;;;;89.53;31.90;;;;;;;-1.02;58.93;100700.27;1786544;79;22182;-66
2021/03/10 00:55:16;;;;;;;86.97;31.47;;;;;;;-0.98;58.71;100696.64;1787752;79;20931;-66
2021/03/10 00:57:42;;;;;;;86.00;32.17;;;;;;;-0.96;58.65;100705.64;1790588;79;21188;-66
2021/03/10 01:00:09;;;;;;;85.77;32.20;;;;;;;-0.94;58.74;100703.35;1778919;79;20940;-65
2021/03/10 01:02:34;;;;;;;85.77;31.65;;;;;;;-0.92;59.03;100698.09;1783034;79;21241;-66
2021/03/10 01:05:00;;;;;;;85.47;32.83;;;;;;;-0.91;58.71;100697.20;1786819;79;22300;-65
2021/03/10 01:07:26;;;;;;;81.20;29.67;;;;;;;-0.89;58.47;100697.96;1780374;79;21629;-66
2021/03/10 01:09:52;;;;;;;79.93;28.17;;;;;;;-0.86;58.28;100697.83;1790159;79;21003;-66
2021/03/10 01:12:17;;;;;;;77.63;30.37;;;;;;;-0.92;58.76;100694.20;1789493;79;21653;-66
2021/03/10 01:14:44;;;;;;;80.73;30.00;;;;;;;-0.89;58.53;100690.65;1784402;79;21491;-66
2021/03/10 01:17:10;;;;;;;79.82;28.73;;;;;;;-0.91;58.45;100692.02;1784835;79;21323;-66
2021/03/10 01:19:36;;;;;;;77.83;28.53;;;;;;;-0.93;58.16;100688.19;1791271;79;20892;-66
2021/03/10 01:22:02;;;;;;;75.30;28.47;;;;;;;-0.92;57.92;100688.59;1787270;79;20959;-66
2021/03/10 01:24:27;;;;;;;74.03;28.63;;;;;;;-0.91;58.11;100681.64;1785654;79;20931;-66
2021/03/10 01:26:53;;;;;;;84.67;31.13;;;;;;;-0.96;58.49;100687.50;1782538;79;20904;-66
2021/03/10 01:29:20;;;;;;;87.40;31.13;;;;;;;-0.95;58.28;100687.43;1781477;79;21550;-66
2021/03/10 01:31:46;;;;;;;79.85;30.35;;;;;;;-0.97;58.63;100679.33;1790082;79;21193;-65
2021/03/10 01:34:12;;;;;;;88.93;30.47;;;;;;;-0.96;58.34;100684.91;1793659;79;20979;-66
2021/03/10 01:36:38;;;;;;;75.53;29.50;;;;;;;-0.94;58.22;100677.89;1789493;78;20953;-66
2021/03/10 01:39:04;;;;;;;80.90;30.73;;;;;;;-0.93;58.31;100683.47;1788623;79;21016;-65
2021/03/10 01:41:30;;;;;;;79.12;28.57;;;;;;;-0.96;58.79;100675.84;1780648;78;21426;-67
2021/03/10 01:43:56;;;;;;;86.60;30.20;;;;;;;-1.04;59.21;100674.02;1789792;79;20896;-66
2021/03/10 01:46:25;;;;;;;86.13;32.17;;;;;;;-1.03;58.96;100675.72;1789189;78;20966;-67
2021/03/10 01:48:50;;;;;;;79.85;30.12;;;;;;;-1.05;58.80;100674.95;1789249;79;21232;-67
2021/03/10 01:51:16;;;;;;;86.57;31.83;;;;;;;-1.06;58.99;100668.08;1785126;78;21606;-67
2021/03/10 01:53:42;;;;;;;84.17;30.62;;;;;;;-1.06;59.30;100676.68;1764947;79;21647;-67
2021/03/10 01:56:09;;;;;;;77.90;31.30;;;;;;;-1.03;59.01;100675.72;1792320;79;20916;-65
2021/03/10 01:58:35;;;;;;;87.25;30.00;;;;;;;-1.04;58.98;100669.70;1792149;79;21615;-67
2021/03/10 02:01:01;;;;;;;81.87;30.50;;;;;;;-1.06;59.62;100674.09;1792843;79;22060;-67
2021/03/10 02:03:26;;;;;;;81.73;31.27;;;;;;;-1.07;59.56;100668.97;1788794;79;21645;-67
2021/03/10 02:05:52;;;;;;;77.10;28.90;;;;;;;-1.07;59.66;100663.79;1781120;79;21838;-66
2021/03/10 02:08:32;;;;;;;87.53;31.63;;;;;;;-1.20;60.59;100669.52;1787286;79;20939;-68
2021/03/10 02:11:16;;;;;;;89.17;32.13;;;;;;;-1.43;61.25;100665.34;1789332;79;21213;-66
2021/03/10 02:13:50;;;;;;;90.22;33.30;;;;;;;-1.59;62.04;100665.17;1784142;78;21225;-66
2021/03/10 02:16:27;;;;;;;78.42;29.48;;;;;;;-1.70;62.67;100664.33;1790362;79;21712;-65
2021/03/10 02:19:20;;;;;;;80.87;31.10;;;;;;;-1.67;62.31;100656.89;1782391;79;21204;-67
2021/03/10 02:22:00;;;;;;;87.12;28.62;;;;;;;-1.57;61.98;100655.61;1790409;79;21201;-66
2021/03/10 02:24:43;;;;;;;80.57;29.42;;;;;;;-1.48;61.35;100653.88;1784835;78;21149;-66
2021/03/10 02:27:33;;;;;;;78.60;30.32;;;;;;;-1.42;61.20;100656.67;1791270;79;21609;-65
2021/03/10 02:30:13;;;;;;;80.00;29.45;;;;;;;-1.38;61.00;100655.64;1787499;79;21239;-66
2021/03/10 02:32:40;;;;;;;85.70;29.87;;;;;;;-1.34;60.81;100649.86;1746464;79;21365;-66
2021/03/10 02:35:08;;;;;;;62.48;22.20;;;;;;;-1.32;61.01;100657.10;1795779;78;21639;-67
2021/03/10 02:37:36;;;;;;;68.22;27.55;;;;;;;-1.31;61.14;100658.80;1784491;78;21188;-66
2021/03/10 02:40:04;;;;;;;78.22;29.75;;;;;;;-1.29;61.13;100658.27;1789464;79;21220;-67
2021/03/10 02:42:30;;;;;;;78.55;29.82;;;;;;;-1.29;61.10;100654.37;1791640;78;21177;-66
2021/03/10 02:44:56;;;;;;;75.17;30.80;;;;;;;-1.27;60.79;100660.36;1789072;79;21360;-66
2021/03/10 02:47:24;;;;;;;81.78;31.12;;;;;;;-1.29;61.17;100658.27;1785230;79;21192;-66
2021/03/10 02:49:55;;;;;;;79.82;30.62;;;;;;;-1.30;61.05;100657.90;1788493;78;21207;-66
2021/03/10 02:52:21;;;;;;;78.83;30.45;;;;;;;-1.39;60.75;100651.83;1782972;79;21683;-66
2021/03/10 02:54:47;;;;;;;81.12;31.60;;;;;;;-1.31;61.13;100658.80;1785941;79;21187;-66
2021/03/10 02:57:13;;;;;;;76.57;29.10;;;;;;;-1.38;61.38;100654.78;1790666;78;21335;-66
2021/03/10 02:59:39;;;;;;;79.77;30.23;;;;;;;-1.35;61.23;100661.98;1785704;78;21021;-66
2021/03/10 03:02:04;;;;;;;84.73;31.37;;;;;;;-1.34;61.29;100661.52;1786340;78;20951;-65
2021/03/10 03:04:30;;;;;;;80.20;30.43;;;;;;;-1.36;61.33;100660.76;1780282;78;20951;-66
2021/03/10 03:06:56;;;;;;;84.60;30.23;;;;;;;-1.36;61.06;100664.64;1790628;78;20992;-66
2021/03/10 03:09:22;;;;;;;78.03;29.33;;;;;;;-1.36;61.14;100663.34;1790986;79;21386;-67
2021/03/10 03:11:50;;;;;;;75.87;29.67;;;;;;;-1.38;61.34;100656.08;1787187;78;21506;-67
2021/03/10 03:14:17;;;;;;;82.55;30.52;;;;;;;-1.38;61.24;100657.37;1779900;79;21213;-66
2021/03/10 03:16:42;;;;;;;71.87;29.63;;;;;;;-1.41;61.67;100660.09;1783067;79;21728;-66
2021/03/10 03:19:08;;;;;;;83.50;30.10;;;;;;;-1.42;61.76;100664.45;1777033;79;21445;-66
2021/03/10 03:21:34;;;;;;;82.20;30.00;;;;;;;-1.41;61.41;100666.57;1779128;79;22026;-66
2021/03/10 03:24:01;;;;;;;83.22;31.05;;;;;;;-1.43;61.53;100664.52;1777218;79;21222;-65
2021/03/10 03:26:26;;;;;;;86.87;31.90;;;;;;;-1.48;61.98;100668.13;1782124;80;21764;-65
2021/03/10 03:28:53;;;;;;;78.33;30.33;;;;;;;-1.56;62.29;100666.80;1782272;79;21506;-65
2021/03/10 03:31:19;;;;;;;78.78;29.23;;;;;;;-1.54;62.04;100661.95;1762288;80;21200;-65
2021/03/10 03:33:45;;;;;;;78.73;29.97;;;;;;;-1.54;62.24;100670.16;1777129;79;21537;-66
2021/03/10 03:36:10;;;;;;;79.00;29.87;;;;;;;-1.55;62.53;100671.91;1780705;80;20944;-66
2021/03/10 03:38:37;;;;;;;79.57;29.07;;;;;;;-1.71;63.44;100663.09;1780395;79;21061;-66
2021/03/10 03:41:03;;;;;;;86.00;31.68;;;;;;;-1.80;63.61;100657.87;1773534;80;21224;-66
2021/03/10 03:43:29;;;;;;;86.83;32.37;;;;;;;-1.78;63.71;100664.28;1781445;80;21476;-66
2021/03/10 03:45:55;;;;;;;83.10;32.27;;;;;;;-1.81;63.80;100658.31;1776306;79;21399;-66
2021/03/10 03:48:21;;;;;;;81.97;30.60;;;;;;;-1.72;63.21;100658.85;1781093;80;20939;-66
2021/03/10 03:50:46;;;;;;;89.75;32.70;;;;;;;-1.72;63.30;100660.14;1781387;80;21245;-66
2021/03/10 03:53:13;;;;;;;88.23;31.23;;;;;;;-1.73;63.29;100655.40;1771543;79;21620;-66
2021/03/10 03:55:40;;;;;;;80.65;30.55;;;;;;;-1.71;62.84;100657.92;1768863;79;21177;-67
2021/03/10 03:58:05;;;;;;;88.35;31.40;;;;;;;-1.71;63.05;100657.92;1775458;79;21228;-66
2021/03/10 04:00:32;;;;;;;86.57;31.77;;;;;;;-1.70;62.85;100663.50;1777978;80;20959;-66
2021/03/10 04:02:58;;;;;;;80.33;29.53;;;;;;;-1.70;62.84;100659.62;1781868;79;21209;-66
2021/03/10 04:05:24;;;;;;;77.43;30.67;;;;;;;-1.74;63.21;100662.80;1777923;80;21273;-66
2021/03/10 04:07:59;;;;;;;86.23;30.20;;;;;;;-1.71;62.84;100660.52;1778739;79;22602;-66
2021/03/10 04:10:30;;;;;;;82.55;30.00;;;;;;;-1.71;62.79;100665.69;1777034;79;21215;-66
2021/03/10 04:12:57;;;;;;;79.10;29.20;;;;;;;-1.72;62.77;100658.85;1778561;78;21208;-66
2021/03/10 04:15:23;;;;;;;73.45;29.87;;;;;;;-1.74;62.90;100666.68;1753536;79;21236;-65
2021/03/10 04:17:49;;;;;;;83.40;29.50;;;;;;;-1.72;62.54;100662.27;1750696;79;21221;-67
2021/03/10 04:20:18;;;;;;;82.82;29.25;;;;;;;-1.73;62.84;100664.92;1762513;79;21671;-68
2021/03/10 04:22:44;;;;;;;81.15;29.75;;;;;;;-1.75;62.89;100664.16;1756242;79;22376;-66
2021/03/10 04:25:10;;;;;;;81.92;30.72;;;;;;;-1.74;62.88;100663.23;1769910;79;21224;-66
2021/03/10 04:27:36;;;;;;;82.50;30.32;;;;;;;-1.74;62.77;100664.09;1751700;79;21185;-66
2021/03/10 04:30:04;;;;;;;70.50;27.30;;;;;;;-1.75;63.10;100662.86;1755312;79;20972;-67
2021/03/10 04:32:30;;;;;;;80.90;30.62;;;;;;;-1.78;63.33;100666.88;1763086;79;21622;-65
2021/03/10 04:34:56;;;;;;;86.80;30.83;;;;;;;-1.82;63.27;100665.70;1765248;79;22225;-65
2021/03/10 04:37:21;;;;;;;79.73;28.93;;;;;;;-1.84;63.27;100673.97;1753372;79;21161;-65
2021/03/10 04:39:47;;;;;;;89.37;30.10;;;;;;;-1.84;62.96;100676.55;1751088;79;21905;-66
2021/03/10 04:42:13;;;;;;;79.73;29.23;;;;;;;-1.85;63.02;100674.03;1743218;79;21585;-66
2021/03/10 04:44:39;;;;;;;74.27;29.40;;;;;;;-1.86;63.08;100675.79;1758440;79;21467;-65
2021/03/10 04:47:04;;;;;;;77.57;29.37;;;;;;;-1.88;63.31;100680.20;1768504;79;22261;-66
2021/03/10 04:49:30;;;;;;;74.77;30.03;;;;;;;-1.87;63.32;100679.73;1744428;79;21685;-66
2021/03/10 04:51:56;;;;;;;82.37;29.27;;;;;;;-1.87;63.16;100676.69;1755610;79;20938;-65
2021/03/10 04:54:22;;;;;;;81.23;28.97;;;;;;;-1.85;63.14;100680.07;1752235;79;20999;-66
2021/03/10 04:56:47;;;;;;;73.37;28.77;;;;;;;-1.88;63.35;100673.73;1746191;79;21045;-66
2021/03/10 04:59:13;;;;;;;79.10;29.60;;;;;;;-1.87;63.37;100675.39;1759537;79;21257;-66
2021/03/10 05:01:39;;;;;;;70.13;27.20;;;;;;;-1.90;63.35;100675.52;1752876;79;21712;-66
2021/03/10 05:04:05;;;;;;;75.05;28.50;;;;;;;-1.95;63.72;100670.99;1754685;79;21509;-67
2021/03/10 05:06:31;;;;;;;82.57;29.73;;;;;;;-2.09;64.52;100673.31;1747500;79;20962;-67
2021/03/10 05:08:56;;;;;;;87.53;32.40;;;;;;;-2.25;65.32;100670.48;1758488;79;20948;-65
2021/03/10 05:11:22;;;;;;;90.30;31.53;;;;;;;-2.31;65.98;100669.00;1751737;79;21290;-66
2021/03/10 05:13:48;;;;;;;81.23;31.43;;;;;;;-2.40;66.32;100677.12;1757115;79;21006;-67
2021/03/10 05:16:15;;;;;;;78.00;29.82;;;;;;;-2.31;65.87;100671.58;1780310;78;21467;-67
2021/03/10 05:18:41;;;;;;;84.65;31.85;;;;;;;-2.21;65.48;100669.00;1780150;80;21221;-66
2021/03/10 05:21:07;;;;;;;83.87;30.57;;;;;;;-2.13;65.14;100668.69;1776967;80;21596;-65
2021/03/10 05:23:33;;;;;;;81.07;31.40;;;;;;;-2.06;64.88;100675.77;1776194;79;22093;-65
2021/03/10 05:25:59;;;;;;;82.20;31.23;;;;;;;-2.04;64.98;100670.08;1780433;80;20939;-66
2021/03/10 05:28:24;;;;;;;83.67;30.73;;;;;;;-2.00;64.69;100672.94;1778677;79;20983;-66
2021/03/10 05:30:50;;;;;;;73.80;29.20;;;;;;;-1.95;64.48;100673.58;1779330;79;20944;-66
2021/03/10 05:33:16;;;;;;;81.83;30.67;;;;;;;-1.92;64.19;100678.63;1783574;80;21001;-67
2021/03/10 05:35:42;;;;;;;81.33;30.30;;;;;;;-1.89;64.15;100681.09;1777980;80;21555;-65
2021/03/10 05:38:07;;;;;;;81.17;30.10;;;;;;;-1.90;64.32;100679.40;1778577;79;20946;-66
2021/03/10 05:40:33;;;;;;;87.23;32.70;;;;;;;-1.89;64.30;100673.79;1780987;79;20983;-66
2021/03/10 05:43:00;;;;;;;78.02;30.23;;;;;;;-1.86;64.25;100682.27;1773743;79;21217;-66
2021/03/10 05:45:26;;;;;;;61.73;24.30;;;;;;;-1.89;64.64;100677.21;1777323;80;21666;-64
2021/03/10 05:47:52;;;;;;;80.37;30.03;;;;;;;-1.86;64.57;100680.14;1781286;79;21578;-65
2021/03/10 05:50:18;;;;;;;81.80;31.27;;;;;;;-1.85;64.47;100677.48;1779675;80;21593;-66
2021/03/10 05:52:44;;;;;;;83.73;32.27;;;;;;;-1.82;64.68;100682.97;1789867;79;21022;-66
2021/03/10 05:55:11;;;;;;;84.32;31.77;;;;;;;-1.76;64.51;100683.17;1779354;79;21221;-66
2021/03/10 05:57:37;;;;;;;82.47;31.33;;;;;;;-1.74;64.39;100689.12;1779688;80;22417;-67
2021/03/10 06:00:12;;;;;;;77.17;30.80;;;;;;;-1.72;64.35;100692.51;1780556;80;21632;-67
2021/03/10 06:02:37;;;;;;;72.22;29.45;;;;;;;-1.71;64.65;100700.21;1772579;79;21180;-67
2021/03/10 06:05:05;;;;;;;85.40;33.40;;;;;;;-1.69;64.66;100698.39;1773014;80;20915;-66
2021/03/10 06:07:31;;;;;;;96.05;33.85;;;;;;;-1.69;64.97;100705.33;1775860;80;21224;-66
2021/03/10 06:10:04;;;;;;;86.93;33.87;;;;;;;-1.69;65.11;100706.62;1777854;80;21012;-67
2021/03/10 06:12:42;;;;;;;85.45;34.30;;;;;;;-1.65;65.21;100706.86;1771435;80;21251;-67
2021/03/10 06:15:09;;;;;;;92.45;36.03;;;;;;;-1.59;65.09;100710.48;1775505;79;21220;-67
2021/03/10 06:17:49;;;;;;;96.65;34.88;;;;;;;-1.60;65.62;100708.83;1778957;78;21594;-67
2021/03/10 06:20:25;;;;;;;90.55;35.03;;;;;;;-1.61;65.63;100707.13;1783773;80;21245;-66
2021/03/10 06:22:55;;;;;;;99.87;35.73;;;;;;;-1.59;65.99;100713.08;1776744;79;21232;-67
2021/03/10 06:25:22;;;;;;;94.40;36.85;;;;;;;-1.54;66.01;100717.63;1779638;79;21414;-66
2021/03/10 06:27:53;;;;;;;95.50;35.33;;;;;;;-1.54;66.30;100721.52;1776467;79;21212;-67
2021/03/10 06:30:42;;;;;;;93.15;35.65;;;;;;;-1.43;67.02;100721.50;1778667;79;21184;-67
2021/03/10 06:33:08;;;;;;;85.40;34.10;;;;;;;-1.35;65.92;100725.89;1769964;79;21228;-66
2021/03/10 06:35:35;;;;;;;89.00;33.92;;;;;;;-1.27;66.51;100722.54;1780100;79;21628;-67
2021/03/10 06:38:15;;;;;;;95.87;36.63;;;;;;;-1.33;66.54;100733.16;1772413;80;22780;-69
2021/03/10 06:41:00;;;;;;;101.85;35.98;;;;;;;-1.26;66.55;100726.80;1779822;80;21208;-68
2021/03/10 06:43:38;;;;;;;91.80;34.80;;;;;;;-1.20;66.42;100722.64;1776484;80;21297;-67
2021/03/10 06:46:17;;;;;;;91.42;36.73;;;;;;;-1.10;66.34;100726.99;1777378;79;21605;-67
2021/03/10 06:49:01;;;;;;;87.40;35.15;;;;;;;-0.95;65.73;100725.45;1773347;80;21175;-67
2021/03/10 06:51:29;;;;;;;87.50;32.65;;;;;;;-0.80;65.53;100722.64;1780582;80;21212;-67
2021/03/10 06:53:55;;;;;;;76.55;27.62;;;;;;;-0.68;64.75;100722.52;1778182;80;21800;-67
2021/03/10 06:56:29;;;;;;;89.90;33.92;;;;;;;-0.57;64.59;100721.60;1780230;80;21216;-66
2021/03/10 06:59:05;;;;;;;88.52;35.52;;;;;;;-0.49;64.36;100722.55;1778160;80;21245;-66
2021/03/10 07:01:42;;;;;;;88.30;35.15;;;;;;;-0.45;64.28;100724.92;1779281;79;21272;-66
2021/03/10 07:04:12;;;;;;;96.47;36.27;;;;;;;-0.39;64.08;100729.83;1776203;79;21362;-68
2021/03/10 07:06:38;;;;;;;93.58;36.10;;;;;;;-0.26;63.70;100729.26;1778497;79;21901;-65
2021/03/10 07:09:06;;;;;;;89.27;35.43;;;;;;;-0.17;63.78;100728.82;1776960;79;21233;-69
2021/03/10 07:11:33;;;;;;;87.80;35.73;;;;;;;-0.07;63.52;100726.15;1773985;80;21164;-67
2021/03/10 07:14:03;;;;;;;95.47;36.10;;;;;;;0.01;63.52;100736.63;1778947;80;21548;-68
2021/03/10 07:16:33;;;;;;;97.70;38.33;;;;;;;-0.05;63.25;100741.22;1776506;79;21380;-67
2021/03/10 07:19:00;;;;;;;103.62;36.98;;;;;;;0.04;62.98;100741.69;1776968;79;21642;-67
2021/03/10 07:21:31;;;;;;;;;;;;;;;0.13;62.84;100738.64;1780656;79;21200;-67
2021/03/10 07:23:58;;;;;;;90.10;34.00;;;;;;;0.16;62.88;100738.49;1781844;80;20307;-67
2021/03/10 07:26:24;;;;;;;93.07;35.83;;;;;;;0.28;62.67;100740.92;1782346;79;21196;-68
2021/03/10 07:28:54;;;;;;;84.90;35.10;;;;;;;0.37;62.52;100739.17;1780474;79;22405;-68
2021/03/10 07:31:21;;;;;;;102.07;39.67;;;;;;;0.42;62.25;100746.30;1778271;79;21245;-68
2021/03/10 07:33:55;;;;;;;88.87;35.30;;;;;;;0.47;62.21;100739.58;1781325;79;21915;-68
2021/03/10 07:36:41;;;;;;;92.25;37.23;;;;;;;0.50;61.74;100743.33;1784591;79;21218;-69
2021/03/10 07:39:25;;;;;;;99.87;36.23;;;;;;;0.50;61.74;100743.33;1783479;80;21258;-69
2021/03/10 07:41:51;;;;;;;90.45;34.83;;;;;;;0.57;61.84;100743.84;1780878;80;21925;-67
2021/03/10 07:44:23;;;;;;;91.47;36.87;;;;;;;0.59;61.87;100743.30;1787411;79;21116;-68
2021/03/10 07:46:52;;;;;;;94.60;36.45;;;;;;;0.62;61.67;100727.12;1780724;79;21194;-68
2021/03/10 07:49:23;;;;;;;86.12;33.58;;;;;;;0.62;61.67;100727.12;1770558;79;21225;-67
2021/03/10 07:51:53;;;;;;;93.82;34.58;;;;;;;0.83;61.11;100746.42;1778142;80;21196;-66
2021/03/10 07:54:25;;;;;;;86.67;33.98;;;;;;;0.83;61.11;100746.42;1776946;79;21618;-67
2021/03/10 07:56:50;;;;;;;87.22;36.28;;;;;;;0.87;60.56;100749.23;1779683;79;21214;-67
2021/03/10 07:59:18;;;;;;;95.40;37.70;;;;;;;0.93;60.40;100746.78;1768665;79;20967;-66
2021/03/10 08:01:44;;;;;;;99.30;38.92;;;;;;;0.99;60.33;100742.09;1777996;79;21129;-66
2021/03/10 08:04:14;;;;;;;95.93;37.37;;;;;;;1.00;60.12;100750.76;1777741;80;21008;-67
2021/03/10 08:06:52;;;;;;;89.35;36.60;;;;;;;1.13;60.06;100756.98;1778518;80;21928;-68
2021/03/10 08:09:20;;;;;;;87.53;35.80;;;;;;;1.20;59.75;100753.61;1782234;80;21193;-66
2021/03/10 08:11:47;;;;;;;93.05;33.50;;;;;;;1.21;59.85;100761.78;1775826;80;22331;-67
2021/03/10 08:14:17;;;;;;;86.37;33.88;;;;;;;1.30;59.90;100752.19;1779548;80;28346;-65
2021/03/10 08:16:48;;;;;;;79.92;32.40;;;;;;;1.41;59.31;100752.47;1776232;79;21208;-67
2021/03/10 08:19:15;;;;;;;76.02;31.27;;;;;;;1.45;58.93;100758.81;1777077;79;21419;-67
2021/03/10 08:21:47;;;;;;;;;;;;;;;1.40;58.47;100736.47;1778548;79;21718;-67
2021/03/10 08:24:14;;;;;;;66.85;29.57;;;;;;;1.35;58.20;100759.31;1784989;79;20295;-66
2021/03/10 08:26:41;;;;;;;76.50;29.53;;;;;;;1.35;58.20;100759.31;1781281;79;21229;-68
2021/03/10 08:29:06;;;;;;;70.20;28.27;;;;;;;1.41;58.10;100764.19;1766230;79;21660;-67
2021/03/10 08:31:44;;;;;;;77.87;27.57;;;;;;;1.57;58.06;100763.33;1775234;79;21613;-67
2021/03/10 08:34:10;;;;;;;67.20;27.50;;;;;;;1.63;57.60;100763.00;1768634;79;21087;-67
2021/03/10 08:36:37;;;;;;;66.43;28.33;;;;;;;1.75;57.69;100762.80;1775070;79;21103;-67
2021/03/10 08:39:09;;;;;;;61.45;25.90;;;;;;;1.82;56.38;100761.99;1772147;79;21176;-69
2021/03/10 08:41:50;;;;;;;70.22;27.35;;;;;;;1.92;56.59;100755.36;1775206;78;21205;-66
2021/03/10 08:44:19;;;;;;;58.28;26.65;;;;;;;1.95;55.56;100761.70;1773602;79;21236;-66
2021/03/10 08:46:45;;;;;;;67.20;28.30;;;;;;;2.03;56.19;100752.98;1773829;79;21260;-68
2021/03/10 08:49:30;;;;;;;62.13;26.87;;;;;;;2.03;54.58;100755.59;1770727;79;21240;-70
2021/03/10 08:52:19;;;;;;;61.92;26.07;;;;;;;1.93;54.73;100762.27;1775759;79;21216;-70
2021/03/10 08:54:53;;;;;;;59.85;25.40;;;;;;;2.02;55.23;100758.28;1769897;79;21247;-69
2021/03/10 08:57:34;;;;;;;62.30;25.05;;;;;;;2.12;54.74;100753.77;1776874;79;22163;-69
2021/03/10 09:00:07;;;;;;;62.30;26.23;;;;;;;2.19;55.28;100757.33;1779089;79;21827;-70
2021/03/10 09:02:34;;;;;;;57.75;26.45;;;;;;;2.29;55.25;100755.42;1785338;79;21431;-69
2021/03/10 09:05:03;;;;;;;62.78;25.97;;;;;;;2.30;54.53;100750.59;1777379;79;21666;-69
2021/03/10 09:07:28;;;;;;;62.08;26.60;;;;;;;2.37;54.45;100747.16;1770850;79;21196;-68
2021/03/10 09:10:01;;;;;;;52.03;24.90;;;;;;;2.34;53.48;100744.73;1773971;79;21040;-67
2021/03/10 09:12:27;;;;;;;57.85;25.10;;;;;;;2.43;53.64;100750.72;1759271;79;21228;-68
2021/03/10 09:14:54;;;;;;;52.47;21.67;;;;;;;2.47;53.50;100749.63;1776126;79;21256;-69
2021/03/10 09:17:31;;;;;;;53.83;23.62;;;;;;;2.48;53.16;100743.46;1793374;79;21524;-67
2021/03/10 09:19:59;;;;;;;53.23;23.47;;;;;;;2.56;52.97;100747.40;1795159;79;21177;-68
2021/03/10 09:22:24;;;;;;;;;;;;;;;2.38;51.47;100751.90;1789746;79;21263;-68
2021/03/10 09:24:56;;;;;;;47.53;19.55;;;;;;;2.22;51.57;100758.02;1794331;79;20245;-68
2021/03/10 09:27:29;;;;;;;54.13;21.87;;;;;;;2.24;51.29;100752.72;1788723;79;21260;-67
2021/03/10 09:30:10;;;;;;;50.25;22.13;;;;;;;2.41;51.24;100747.38;1792159;79;21233;-68
2021/03/10 09:32:46;;;;;;;45.90;20.30;;;;;;;2.58;51.13;100751.60;1787273;79;21623;-67
2021/03/10 09:35:18;;;;;;;44.83;21.27;;;;;;;2.73;50.73;100751.63;1790205;79;21208;-67
2021/03/10 09:37:48;;;;;;;41.90;19.35;;;;;;;2.77;51.25;100748.74;1794103;79;21228;-67
2021/03/10 09:40:15;;;;;;;41.35;17.95;;;;;;;2.88;50.34;100744.19;1782447;79;21224;-66
2021/03/10 09:42:48;;;;;;;45.48;18.55;;;;;;;2.92;49.42;100744.84;1787205;79;21114;-68
2021/03/10 09:45:24;;;;;;;40.00;19.15;;;;;;;2.99;50.30;100743.55;1762303;79;21240;-68
2021/03/10 09:47:50;;;;;;;39.40;16.17;;;;;;;2.90;48.82;100746.71;1792530;79;22521;-65
2021/03/10 09:50:30;;;;;;;31.63;15.50;;;;;;;2.99;48.50;100744.85;1786234;79;22605;-67
2021/03/10 09:52:57;;;;;;;35.35;16.52;;;;;;;3.14;48.57;100749.59;1749350;79;21209;-67
2021/03/10 09:55:24;;;;;;;34.63;15.05;;;;;;;3.21;48.20;100747.81;1781875;79;21228;-67
2021/03/10 09:58:03;;;;;;;35.90;16.57;;;;;;;3.30;47.86;100742.51;1781511;79;21542;-67
2021/03/10 10:00:31;;;;;;;37.75;16.35;;;;;;;3.43;48.36;100747.80;1774455;79;21563;-68
2021/03/10 10:02:56;;;;;;;33.55;15.65;;;;;;;3.54;47.43;100751.05;1760080;79;21200;-67
2021/03/10 10:05:28;;;;;;;35.20;16.57;;;;;;;3.65;47.72;100749.07;1784866;79;20962;-67
2021/03/10 10:07:56;;;;;;;33.98;16.48;;;;;;;3.65;46.84;100753.84;1788630;79;21189;-67
2021/03/10 10:10:22;;;;;;;36.25;16.05;;;;;;;3.73;46.65;100753.36;1794890;79;21169;-66
2021/03/10 10:12:50;;;;;;;33.05;16.12;;;;;;;3.74;45.90;100750.66;1793877;78;21415;-67
2021/03/10 10:15:19;;;;;;;30.20;13.38;;;;;;;3.89;46.55;100756.66;1784769;79;21233;-69
2021/03/10 10:17:48;;;;;;;27.25;12.20;;;;;;;3.98;45.14;100753.08;1782809;78;21645;-68
2021/03/10 10:20:25;;;;;;;22.35;12.28;;;;;;;4.06;43.43;100757.36;1786193;79;21220;-69
2021/03/10 10:22:51;;;;;;;37.37;16.00;;;;;;;4.14;43.43;100752.47;1781926;78;21229;-67
2021/03/10 10:25:17;;;;;;;38.37;19.03;;;;;;;4.17;45.23;100758.81;1792656;79;21753;-69
2021/03/10 10:27:44;;;;;;;44.23;20.17;;;;;;;4.27;46.21;100761.20;1791757;79;25903;-68
2021/03/10 10:30:17;;;;;;;39.08;19.30;;;;;;;4.36;46.65;100765.45;1778873;79;21180;-68
2021/03/10 10:32:43;;;;;;;27.52;13.65;;;;;;;4.38;45.26;100767.48;1783412;78;21635;-68
2021/03/10 10:35:10;;;;;;;24.77;13.03;;;;;;;4.47;42.86;100765.57;1791367;79;21221;-68
2021/03/10 10:37:36;;;;;;;24.87;12.68;;;;;;;4.50;41.83;100764.06;1789180;78;21733;-69
2021/03/10 10:40:06;;;;;;;30.40;14.13;;;;;;;4.64;43.13;100761.36;1786106;79;23564;-70
2021/03/10 10:42:31;;;;;;;20.97;10.48;;;;;;;4.71;42.93;100762.25;1788878;79;21190;-69
2021/03/10 10:44:57;;;;;;;18.80;9.88;;;;;;;4.72;40.61;100761.32;1783681;79;29070;-68
2021/03/10 10:47:23;;;;;;;19.87;9.73;;;;;;;4.81;39.59;100759.39;1791705;79;26679;-68
2021/03/10 10:49:49;;;;;;;16.90;10.10;;;;;;;4.75;38.79;100754.58;1782745;79;21417;-69
2021/03/10 10:52:15;;;;;;;19.52;10.65;;;;;;;4.81;39.37;100760.22;1791180;79;21156;-68
2021/03/10 10:54:41;;;;;;;19.10;9.60;;;;;;;5.00;40.04;100751.98;1786835;79;23649;-69
2021/03/10 10:57:07;;;;;;;21.40;9.68;;;;;;;5.09;39.69;100761.44;1790692;79;28184;-67
2021/03/10 10:59:33;;;;;;;18.35;9.10;;;;;;;5.12;38.62;100753.38;1795034;79;27311;-69
2021/03/10 11:01:58;;;;;;;18.92;9.45;;;;;;;5.07;37.86;100746.32;1786852;79;22109;-69
2021/03/10 11:04:24;;;;;;;19.55;9.48;;;;;;;5.15;39.02;100746.14;1792275;79;26420;-69
2021/03/10 11:06:50;;;;;;;18.53;9.27;;;;;;;5.18;38.37;100747.72;1785263;79;21877;-68
2021/03/10 11:09:16;;;;;;;20.17;8.95;;;;;;;5.26;38.03;100745.39;1794683;79;28830;-68
2021/03/10 11:11:41;;;;;;;21.30;10.25;;;;;;;5.32;38.08;100748.89;1793740;78;27740;-69
2021/03/10 11:14:07;;;;;;;26.95;10.98;;;;;;;5.37;38.49;100744.16;1787453;79;22235;-68
2021/03/10 11:16:33;;;;;;;23.77;12.13;;;;;;;5.31;38.46;100735.91;1791639;79;27509;-68
2021/03/10 11:18:58;;;;;;;23.77;12.33;;;;;;;5.35;38.77;100740.82;1789925;79;23781;-69